Time;durP1;ratioP1;P1;durP2;ratioP2;P2;SDS_P1;SDS_P2;PMS_P1;PMS_P2;Temp;Humidity;BMP_temperature;BMP_pressure;BME280_temperature;BME280_humidity;BME280_pressure;Samples;Min_cycle;Max_cycle;Signal;HPM_P1;HPM_P2
2023/06/21 00:00:30;;;;;;;11.25;7.28;;;;;;;16.67;100.00;97646.47;5054162;28;20028;-75
2023/06/21 00:02:59;;;;;;;14.23;7.13;;;;;;;16.63;100.00;97651.25;5037349;28;20708;-76
2023/06/21 00:05:26;;;;;;;9.77;7.10;;;;;;;16.62;100.00;97654.94;5053978;28;20059;-76
2023/06/21 00:07:54;;;;;;;9.75;7.22;;;;;;;16.57;100.00;97651.78;5054100;28;20029;-76
2023/06/21 00:10:23;;;;;;;14.40;7.85;;;;;;;16.56;100.00;97657.28;5053936;28;20028;-76
2023/06/21 00:12:52;;;;;;;10.65;7.38;;;;;;;16.56;100.00;97650.06;5054348;28;20025;-76
2023/06/21 00:15:18;;;;;;;12.15;7.43;;;;;;;16.51;100.00;97648.69;5037150;28;20032;-76
2023/06/21 00:17:44;;;;;;;10.48;7.18;;;;;;;16.49;100.00;97654.22;5053827;28;20024;-76
2023/06/21 00:20:10;;;;;;;13.48;8.07;;;;;;;16.51;100.00;97660.38;5037149;28;20047;-76
2023/06/21 00:22:37;;;;;;;16.35;7.85;;;;;;;16.45;100.00;97655.47;5035478;28;20518;-77
2023/06/21 00:25:03;;;;;;;16.83;7.55;;;;;;;16.51;100.00;97651.41;5053700;28;20028;-77
2023/06/21 00:27:28;;;;;;;11.13;7.45;;;;;;;16.45;100.00;97651.91;5069890;28;20530;-76
2023/06/21 00:29:54;;;;;;;11.98;7.57;;;;;;;16.42;100.00;97655.75;5053526;28;20028;-77
2023/06/21 00:32:19;;;;;;;10.18;7.45;;;;;;;16.36;100.00;97656.25;5053553;28;20074;-76
2023/06/21 00:34:47;;;;;;;12.27;7.95;;;;;;;16.34;100.00;97658.19;5053523;28;20028;-76
2023/06/21 00:37:13;;;;;;;9.68;7.32;;;;;;;16.31;100.00;97658.47;5053864;28;20027;-76
2023/06/21 00:39:39;;;;;;;13.23;7.85;;;;;;;16.32;100.00;97657.47;5036606;28;20031;-76
2023/06/21 00:42:08;;;;;;;16.48;7.60;;;;;;;16.35;100.00;97657.22;5053255;28;20020;-77
2023/06/21 00:44:34;;;;;;;11.93;8.00;;;;;;;16.39;100.00;97664.09;5070762;28;20036;-76
2023/06/21 00:46:59;;;;;;;13.73;8.02;;;;;;;16.46;100.00;97662.56;5070930;28;20369;-77
2023/06/21 00:49:25;;;;;;;14.27;7.97;;;;;;;16.51;100.00;97667.59;5052831;28;20412;-76
2023/06/21 00:51:57;;;;;;;11.35;7.22;;;;;;;16.42;100.00;97663.84;5052897;28;20063;-76
2023/06/21 00:54:31;;;;;;;10.02;7.10;;;;;;;16.29;100.00;97663.13;5053376;28;20020;-76
2023/06/21 00:56:57;;;;;;;10.88;7.72;;;;;;;16.28;100.00;97673.06;5036356;28;20021;-77
2023/06/21 00:59:27;;;;;;;9.50;7.07;;;;;;;16.28;100.00;97664.13;5028192;28;20024;-77
2023/06/21 01:01:55;;;;;;;10.70;7.82;;;;;;;16.27;100.00;97663.25;5053181;28;20396;-77
2023/06/21 01:04:21;;;;;;;9.95;7.65;;;;;;;16.27;100.00;97665.13;5036069;28;20036;-76
2023/06/21 01:07:05;;;;;;;13.25;7.82;;;;;;;16.27;100.00;97665.94;5070748;28;20028;-76
2023/06/21 01:09:43;;;;;;;11.45;7.63;;;;;;;16.24;100.00;97662.69;5070659;28;20415;-76
2023/06/21 01:12:32;;;;;;;20.38;7.90;;;;;;;16.24;100.00;97665.38;5036471;28;20474;-76
2023/06/21 01:15:03;;;;;;;11.32;7.60;;;;;;;16.12;100.00;97658.25;5044666;28;20024;-76
2023/06/21 01:17:33;;;;;;;17.27;8.00;;;;;;;16.08;100.00;97662.22;5052501;28;20387;-76
2023/06/21 01:19:58;;;;;;;11.57;7.35;;;;;;;16.08;100.00;97654.97;5036289;28;20075;-76
2023/06/21 01:22:34;;;;;;;10.60;7.95;;;;;;;16.10;100.00;97660.25;5036174;28;20060;-76
2023/06/21 01:25:26;;;;;;;10.00;7.25;;;;;;;16.06;100.00;97659.63;5052713;28;20404;-76
2023/06/21 01:28:15;;;;;;;13.13;7.25;;;;;;;16.10;100.00;97660.25;5070929;28;20029;-76
2023/06/21 01:30:41;;;;;;;10.48;7.90;;;;;;;16.02;100.00;97651.94;5052666;28;20090;-77
2023/06/21 01:33:07;;;;;;;17.30;7.60;;;;;;;15.97;100.00;97654.13;5052766;28;20032;-77
2023/06/21 01:35:33;;;;;;;14.73;8.13;;;;;;;15.90;100.00;97658.34;5052608;28;20123;-77
2023/06/21 01:38:00;;;;;;;10.50;7.68;;;;;;;15.87;100.00;97659.44;5052718;28;20060;-77
2023/06/21 01:40:26;;;;;;;15.93;8.18;;;;;;;15.88;100.00;97657.56;5035958;28;20028;-77
2023/06/21 01:42:52;;;;;;;11.68;7.50;;;;;;;15.87;100.00;97661.28;5070487;28;20032;-77
2023/06/21 01:45:18;;;;;;;13.98;8.10;;;;;;;15.89;100.00;97659.31;5052340;28;20134;-77
2023/06/21 01:47:44;;;;;;;11.38;7.75;;;;;;;15.92;100.00;97661.75;5052590;28;20053;-76
2023/06/21 01:50:10;;;;;;;17.17;8.52;;;;;;;15.88;100.00;97668.38;5035799;28;20052;-77
2023/06/21 01:52:36;;;;;;;20.52;7.72;;;;;;;15.89;100.00;97672.78;5035838;28;20071;-77
2023/06/21 01:55:05;;;;;;;11.27;7.80;;;;;;;15.92;100.00;97672.53;5052447;28;20017;-77
2023/06/21 01:57:35;;;;;;;14.20;8.15;;;;;;;15.90;100.00;97674.53;5035695;28;20032;-77
2023/06/21 02:00:17;;;;;;;12.63;7.68;;;;;;;15.89;100.00;97668.25;5036164;28;20013;-77
2023/06/21 02:02:47;;;;;;;18.13;8.23;;;;;;;15.84;100.00;97667.78;5054464;28;20032;-77
2023/06/21 02:05:15;;;;;;;13.50;7.97;;;;;;;15.86;100.00;97679.31;5052602;28;20025;-76
2023/06/21 02:07:41;;;;;;;10.23;7.65;;;;;;;15.78;100.00;97680.91;5048673;28;20032;-76
2023/06/21 02:10:07;;;;;;;12.07;7.57;;;;;;;15.78;100.00;97678.22;5035442;28;20032;-76
2023/06/21 02:12:33;;;;;;;12.48;8.25;;;;;;;15.69;100.00;97672.56;5036103;28;20043;-76
2023/06/21 02:14:59;;;;;;;21.80;8.63;;;;;;;15.68;100.00;97676.25;5069776;28;20028;-76
2023/06/21 02:17:24;;;;;;;12.02;8.07;;;;;;;15.66;100.00;97674.63;5073905;28;20039;-76
2023/06/21 02:19:50;;;;;;;12.38;8.55;;;;;;;15.66;100.00;97680.03;5039491;28;20032;-78
2023/06/21 02:22:15;;;;;;;15.15;8.95;;;;;;;15.66;100.00;97672.81;5056090;28;20109;-78
2023/06/21 02:24:41;;;;;;;18.25;9.23;;;;;;;15.71;100.00;97678.72;5055642;28;20447;-76
2023/06/21 02:27:07;;;;;;;12.50;8.30;;;;;;;15.66;100.00;97670.09;5039210;28;20044;-76
2023/06/21 02:29:32;;;;;;;14.75;8.85;;;;;;;15.61;100.00;97674.16;5055846;28;20102;-76
2023/06/21 02:31:58;;;;;;;14.57;8.73;;;;;;;15.63;100.00;97680.28;5055811;28;20028;-76
2023/06/21 02:34:24;;;;;;;15.85;8.80;;;;;;;15.62;100.00;97686.66;5055764;28;20020;-76
2023/06/21 02:36:53;;;;;;;12.43;8.15;;;;;;;15.60;100.00;97678.69;5051456;28;20025;-76
2023/06/21 02:39:21;;;;;;;20.45;9.40;;;;;;;15.62;100.00;97689.38;5056120;28;20032;-76
2023/06/21 02:41:47;;;;;;;23.15;9.35;;;;;;;15.61;100.00;97683.13;5039008;28;20028;-77
2023/06/21 02:44:12;;;;;;;17.98;9.40;;;;;;;15.65;100.00;97698.06;5039137;28;20032;-77
2023/06/21 02:46:38;;;;;;;12.93;8.95;;;;;;;15.61;100.00;97699.28;5038862;28;20484;-77
2023/06/21 02:49:03;;;;;;;13.18;8.90;;;;;;;15.57;100.00;97696.94;5055456;28;20053;-77
2023/06/21 02:51:29;;;;;;;11.38;8.40;;;;;;;15.65;100.00;97700.78;5055309;28;20029;-77
2023/06/21 02:53:54;;;;;;;16.95;8.98;;;;;;;15.62;100.00;97702.84;5055452;28;20486;-76
2023/06/21 02:56:20;;;;;;;14.45;9.35;;;;;;;15.55;100.00;97707.88;5073437;28;20021;-77
2023/06/21 02:58:46;;;;;;;14.40;9.07;;;;;;;15.57;100.00;97713.13;5055292;28;20411;-79
2023/06/21 03:01:13;;;;;;;13.95;9.05;;;;;;;15.64;100.00;97711.66;5038485;28;20028;-79
2023/06/21 03:03:41;;;;;;;11.13;7.88;;;;;;;15.64;100.00;97715.22;5038680;28;20058;-79
2023/06/21 03:06:06;;;;;;;13.70;8.85;;;;;;;15.75;100.00;97721.63;5038249;28;20028;-79
2023/06/21 03:08:32;;;;;;;14.35;9.02;;;;;;;15.81;100.00;97721.13;5038413;28;20032;-79
2023/06/21 03:10:57;;;;;;;18.60;8.80;;;;;;;15.83;100.00;97724.53;5055179;28;20064;-79
2023/06/21 03:13:23;;;;;;;15.10;9.13;;;;;;;15.81;100.00;97721.13;5038527;28;20048;-79
2023/06/21 03:15:48;;;;;;;13.75;9.30;;;;;;;15.82;100.00;97722.81;5038333;28;20381;-79
2023/06/21 03:18:15;;;;;;;68.95;20.13;;;;;;;15.81;100.00;97719.25;5038235;28;20495;-77
2023/06/21 03:20:42;;;;;;;37.42;14.80;;;;;;;15.82;100.00;97729.06;5054499;28;20033;-77
2023/06/21 03:23:08;;;;;;;17.35;9.88;;;;;;;15.87;100.00;97729.59;5054908;28;20036;-77
2023/06/21 03:25:33;;;;;;;22.98;9.35;;;;;;;15.92;100.00;97721.09;5038101;28;20028;-77
2023/06/21 03:27:59;;;;;;;20.83;9.15;;;;;;;15.93;100.00;97726.41;5055052;28;20028;-77
2023/06/21 03:30:25;;;;;;;26.08;9.30;;;;;;;15.94;100.00;97719.13;5038040;28;20042;-77
2023/06/21 03:32:50;;;;;;;22.33;10.10;;;;;;;15.98;100.00;97715.22;5054857;28;20502;-77
2023/06/21 03:35:17;;;;;;;16.95;8.95;;;;;;;15.99;100.00;97720.50;5054589;28;20029;-77
2023/06/21 03:37:46;;;;;;;13.63;8.80;;;;;;;16.14;100.00;97723.78;5054711;28;20127;-74
2023/06/21 03:40:13;;;;;;;17.45;9.45;;;;;;;16.14;100.00;97721.09;5072445;28;20023;-76
2023/06/21 03:42:38;;;;;;;17.33;9.05;;;;;;;16.15;100.00;97720.13;5054498;28;20060;-76
2023/06/21 03:45:05;;;;;;;15.95;9.57;;;;;;;16.20;100.00;97717.88;5037820;28;20060;-76
2023/06/21 03:47:30;;;;;;;17.73;10.30;;;;;;;16.35;100.00;97727.44;5044276;28;20072;-76
2023/06/21 03:49:57;;;;;;;27.05;10.38;;;;;;;16.40;100.00;97718.94;5017693;28;20107;-76
2023/06/21 03:52:23;;;;;;;21.75;11.05;;;;;;;16.53;100.00;97723.19;5034615;28;20026;-75
2023/06/21 03:54:49;;;;;;;21.00;10.55;;;;;;;16.57;100.00;97723.84;5052205;28;20412;-76
2023/06/21 03:57:14;;;;;;;20.13;10.40;;;;;;;16.59;100.00;97724.56;5029275;28;20036;-77
2023/06/21 03:59:40;;;;;;;24.85;10.43;;;;;;;16.68;100.00;97735.47;5031114;28;20090;-76
2023/06/21 04:02:06;;;;;;;27.70;12.20;;;;;;;16.72;100.00;97725.25;5034297;28;20029;-77
2023/06/21 04:04:31;;;;;;;23.80;11.63;;;;;;;16.83;100.00;97721.66;5022780;28;20013;-76
2023/06/21 04:06:57;;;;;;;19.30;10.85;;;;;;;16.99;100.00;97722.06;5031964;28;20485;-75
2023/06/21 04:09:23;;;;;;;27.60;11.68;;;;;;;17.11;100.00;97726.44;5033713;28;20022;-77
2023/06/21 04:11:49;;;;;;;33.53;13.13;;;;;;;17.14;100.00;97727.03;5003991;28;20040;-76
2023/06/21 04:14:15;;;;;;;30.30;12.65;;;;;;;17.21;100.00;97725.50;5014526;28;20025;-77
2023/06/21 04:16:41;;;;;;;22.63;12.45;;;;;;;17.31;100.00;97734.56;5043679;28;20026;-76
2023/06/21 04:19:07;;;;;;;22.05;10.35;;;;;;;17.44;100.00;97728.09;5005201;28;20441;-77
2023/06/21 04:21:33;;;;;;;24.67;10.60;;;;;;;17.56;100.00;97733.34;5033732;28;20028;-76
2023/06/21 04:23:58;;;;;;;14.82;10.00;;;;;;;17.54;100.00;97726.28;5051361;28;20032;-82
2023/06/21 04:26:24;;;;;;;18.27;10.45;;;;;;;17.66;100.00;97727.94;5003926;28;20026;-74
2023/06/21 04:28:50;;;;;;;16.10;10.80;;;;;;;17.70;100.00;97727.56;4997361;28;20031;-75
2023/06/21 04:31:15;;;;;;;26.25;10.80;;;;;;;17.85;100.00;97726.19;4997192;28;20033;-75
2023/06/21 04:33:41;;;;;;;22.98;11.60;;;;;;;17.95;100.00;97730.78;5014071;28;20543;-86
2023/06/21 04:36:06;;;;;;;27.77;13.45;;;;;;;18.13;100.00;97729.16;4997169;28;20025;-86
2023/06/21 04:38:33;;;;;;;29.35;12.98;;;;;;;18.26;100.00;97733.34;5008333;28;20033;-88
2023/06/21 04:40:58;;;;;;;148.80;89.07;;;;;;;18.40;100.00;97723.97;5017453;28;20482;-87
2023/06/21 04:43:25;;;;;;;20.85;11.52;;;;;;;18.40;100.00;97714.00;5030016;28;20022;-86
2023/06/21 04:45:51;;;;;;;32.97;14.55;;;;;;;18.45;100.00;97713.59;5033814;28;20029;-88
2023/06/21 04:48:17;;;;;;;21.02;11.20;;;;;;;18.51;100.00;97725.75;5030158;28;20508;-88
2023/06/21 04:50:45;;;;;;;18.30;10.45;;;;;;;18.64;100.00;97721.75;5017356;28;20115;-88
2023/06/21 04:53:14;;;;;;;25.50;11.50;;;;;;;19.23;100.00;97715.34;5034013;28;20103;-89
2023/06/21 04:55:42;;;;;;;24.25;10.77;;;;;;;20.08;100.00;97704.44;5016793;28;20033;-88
2023/06/21 04:58:09;;;;;;;28.75;9.88;;;;;;;20.76;100.00;97703.06;5017632;28;20039;-88
2023/06/21 05:00:36;;;;;;;18.77;8.82;;;;;;;21.37;100.00;97692.25;5017311;28;20081;-88
2023/06/21 05:03:01;;;;;;;27.83;8.75;;;;;;;22.29;100.00;97681.56;5017568;28;20044;-88
2023/06/21 05:05:27;;;;;;;16.27;8.75;;;;;;;23.09;100.00;97676.31;5016471;28;20029;-87
2023/06/21 05:07:52;;;;;;;20.83;8.50;;;;;;;23.58;100.00;97670.84;5017014;28;20029;-88
2023/06/21 05:10:18;;;;;;;21.40;9.48;;;;;;;24.31;100.00;97665.19;5033307;28;20028;-87
2023/06/21 05:12:44;;;;;;;25.92;14.13;;;;;;;24.60;100.00;97669.00;5017003;28;20037;-89
2023/06/21 05:15:09;;;;;;;22.80;9.40;;;;;;;25.56;100.00;97668.50;5017125;28;20111;-89
2023/06/21 05:17:35;;;;;;;39.80;23.85;;;;;;;26.00;100.00;97658.41;5016691;28;20090;-89
2023/06/21 05:20:03;;;;;;;17.85;8.32;;;;;;;26.69;100.00;97658.94;5017242;28;20499;-89
2023/06/21 05:22:28;;;;;;;13.38;8.27;;;;;;;27.05;96.81;97654.31;5017121;28;20021;-89
2023/06/21 05:24:54;;;;;;;12.13;8.18;;;;;;;25.88;99.64;97654.44;5017251;28;20032;-88
2023/06/21 05:27:19;;;;;;;13.40;7.80;;;;;;;25.69;100.00;97664.06;5017496;28;20515;-88
2023/06/21 05:29:45;;;;;;;14.57;9.02;;;;;;;26.38;100.00;97660.06;5033278;28;20063;-89
2023/06/21 05:32:11;;;;;;;17.05;8.90;;;;;;;26.99;97.00;97659.72;5016247;28;20099;-89
2023/06/21 05:34:36;;;;;;;13.18;8.35;;;;;;;26.59;97.65;97670.22;5033173;28;20029;-87
2023/06/21 05:37:02;;;;;;;17.50;9.35;;;;;;;26.53;98.69;97661.91;5032834;28;20029;-84
2023/06/21 05:39:27;;;;;;;17.50;8.45;;;;;;;27.20;96.93;97651.47;5032605;28;20013;-84
2023/06/21 05:41:53;;;;;;;12.10;7.68;;;;;;;27.91;91.78;97662.28;5030513;28;20416;-84
2023/06/21 05:44:18;;;;;;;17.85;9.13;;;;;;;28.16;89.23;97651.66;5030101;28;20056;-84
2023/06/21 05:46:44;;;;;;;14.75;7.57;;;;;;;28.90;83.45;97646.28;5029654;28;20500;-84
2023/06/21 05:49:09;;;;;;;23.83;8.52;;;;;;;28.97;81.58;97653.53;5052665;28;20103;-83
2023/06/21 05:51:35;;;;;;;13.63;7.80;;;;;;;29.19;80.94;97656.13;5037088;28;20040;-85
2023/06/21 05:54:00;;;;;;;14.20;7.30;;;;;;;28.84;81.51;97653.50;5031589;28;20040;-84
2023/06/21 05:56:27;;;;;;;16.17;6.93;;;;;;;29.24;79.41;97659.97;5048301;28;20033;-86
2023/06/21 05:58:53;;;;;;;10.73;7.63;;;;;;;29.88;72.00;97657.47;5033949;28;20064;-87
2023/06/21 06:01:20;;;;;;;12.13;7.75;;;;;;;29.20;79.78;97669.69;5021995;28;20023;-86
2023/06/21 06:03:46;;;;;;;17.08;7.85;;;;;;;29.25;79.19;97677.38;5052183;28;20028;-86
2023/06/21 06:06:15;;;;;;;13.10;6.80;;;;;;;29.41;75.02;97655.75;5033523;28;20056;-87
2023/06/21 06:08:40;;;;;;;11.60;6.47;;;;;;;29.54;72.20;97652.16;5024409;28;20392;-86
2023/06/21 06:11:06;;;;;;;17.10;6.60;;;;;;;29.36;72.64;97651.91;5071392;28;20032;-86
2023/06/21 06:13:31;;;;;;;10.75;6.97;;;;;;;29.52;72.05;97651.50;5036957;28;20036;-86
2023/06/21 06:15:57;;;;;;;7.82;6.38;;;;;;;29.63;72.16;97645.34;5053056;28;20033;-86
2023/06/21 06:18:22;;;;;;;8.73;6.65;;;;;;;29.56;71.38;97631.56;5037042;28;20036;-87
2023/06/21 06:20:48;;;;;;;12.27;7.43;;;;;;;30.36;69.40;97622.13;5053593;28;20032;-86
2023/06/21 06:23:13;;;;;;;10.95;7.45;;;;;;;31.36;62.97;97623.31;5053568;28;20024;-86
2023/06/21 06:25:40;;;;;;;13.18;7.13;;;;;;;32.10;58.71;97618.66;5053688;28;20034;-86
2023/06/21 06:28:06;;;;;;;27.33;8.93;;;;;;;32.28;55.24;97620.59;5036538;28;20036;-86
2023/06/21 06:30:31;;;;;;;17.75;8.40;;;;;;;32.57;54.76;97611.53;5053303;28;20493;-87
2023/06/21 06:32:57;;;;;;;8.57;6.65;;;;;;;32.51;53.82;97611.59;5033238;28;20028;-86
2023/06/21 06:35:22;;;;;;;10.98;6.45;;;;;;;32.02;55.35;97604.25;5028822;28;20036;-86
2023/06/21 06:37:48;;;;;;;16.80;7.00;;;;;;;32.99;52.93;97608.81;5035182;28;20025;-85
2023/06/21 06:40:14;;;;;;;18.83;7.00;;;;;;;32.66;52.30;97612.91;5052893;28;20431;-86
2023/06/21 06:42:39;;;;;;;13.43;6.90;;;;;;;32.83;50.85;97612.25;5034785;28;20044;-86
2023/06/21 06:45:05;;;;;;;19.92;7.75;;;;;;;32.97;51.19;97616.53;5036543;28;20489;-86
2023/06/21 06:47:31;;;;;;;19.98;7.43;;;;;;;33.11;51.31;97618.91;5047470;28;20068;-86
2023/06/21 06:49:57;;;;;;;24.70;7.10;;;;;;;33.51;49.85;97613.59;5052667;28;20083;-86
2023/06/21 06:52:23;;;;;;;16.60;8.48;;;;;;;33.86;49.00;97604.47;5052862;28;20032;-86
2023/06/21 06:54:48;;;;;;;12.50;7.53;;;;;;;33.72;49.62;97610.25;5037610;28;20555;-86
2023/06/21 06:57:14;;;;;;;19.27;7.72;;;;;;;32.99;52.49;97619.91;5052936;28;20428;-85
2023/06/21 06:59:39;;;;;;;13.60;7.15;;;;;;;32.60;54.24;97616.63;5035504;28;20060;-85
2023/06/21 07:02:05;;;;;;;18.98;7.25;;;;;;;32.58;56.03;97618.75;5052733;28;20040;-85
2023/06/21 07:04:31;;;;;;;8.88;6.72;;;;;;;32.87;55.04;97621.78;5035918;28;20037;-86
2023/06/21 07:06:58;;;;;;;14.32;7.25;;;;;;;32.99;53.94;97608.81;5035684;28;20030;-86
2023/06/21 07:09:24;;;;;;;9.40;6.55;;;;;;;33.46;52.74;97601.50;5052409;28;20385;-86
2023/06/21 07:11:50;;;;;;;16.98;7.07;;;;;;;31.86;59.27;97613.13;5052547;28;20111;-86
2023/06/21 07:14:15;;;;;;;10.13;6.82;;;;;;;33.42;53.12;97609.47;5035509;28;20115;-86
2023/06/21 07:16:42;;;;;;;8.95;6.45;;;;;;;34.25;50.05;97603.75;5049413;28;20028;-86
2023/06/21 07:19:07;;;;;;;8.98;6.70;;;;;;;34.92;47.25;97590.22;5036075;28;20083;-87
2023/06/21 07:21:33;;;;;;;11.57;7.43;;;;;;;35.41;46.32;97592.25;5035176;28;20032;-85
2023/06/21 07:23:59;;;;;;;13.23;7.28;;;;;;;35.46;45.42;97585.94;5035434;28;20032;-85
2023/06/21 07:26:25;;;;;;;12.35;6.70;;;;;;;35.12;46.00;97588.69;5051876;28;20036;-86
2023/06/21 07:28:51;;;;;;;10.80;6.68;;;;;;;35.34;46.07;97586.03;5035356;28;20502;-86
2023/06/21 07:31:17;;;;;;;18.08;6.68;;;;;;;35.33;45.99;97587.09;5052526;28;20032;-86
2023/06/21 07:33:42;;;;;;;18.02;7.40;;;;;;;35.61;45.90;97592.63;5051785;28;20040;-85
2023/06/21 07:36:08;;;;;;;19.70;7.78;;;;;;;35.06;45.89;97583.22;5051950;28;20594;-86
2023/06/21 07:38:33;;;;;;;20.00;6.93;;;;;;;35.60;44.42;97585.38;5052101;28;20040;-86
2023/06/21 07:40:59;;;;;;;18.27;7.60;;;;;;;36.30;43.92;97573.66;5035590;28;20082;-86
2023/06/21 07:43:24;;;;;;;19.05;7.95;;;;;;;35.42;45.17;97577.25;5035242;28;20103;-86
2023/06/21 07:45:50;;;;;;;11.07;7.03;;;;;;;34.18;48.45;97587.22;5035296;28;20135;-85
2023/06/21 07:48:15;;;;;;;14.15;7.57;;;;;;;34.50;49.60;97586.78;5051674;28;20053;-86
2023/06/21 07:50:41;;;;;;;17.23;7.60;;;;;;;35.57;47.95;97596.13;5032949;28;20032;-85
2023/06/21 07:53:06;;;;;;;15.35;7.50;;;;;;;35.88;45.05;97581.66;5015020;28;20433;-86
2023/06/21 07:55:32;;;;;;;8.10;6.30;;;;;;;36.46;42.25;97577.47;5049886;28;20036;-84
2023/06/21 07:57:57;;;;;;;13.73;6.97;;;;;;;37.11;41.33;97578.31;5050015;28;20086;-85
2023/06/21 08:00:23;;;;;;;10.10;6.82;;;;;;;36.98;41.64;97583.47;5034450;28;20028;-85
2023/06/21 08:02:51;;;;;;;19.95;7.80;;;;;;;37.19;42.16;97583.44;5017606;28;20079;-85
2023/06/21 08:05:17;;;;;;;12.40;7.38;;;;;;;37.65;42.16;97579.16;5044315;28;20021;-85
2023/06/21 08:07:42;;;;;;;17.30;7.45;;;;;;;37.25;41.85;97571.22;5031481;28;20405;-84
2023/06/21 08:10:09;;;;;;;12.10;7.03;;;;;;;37.78;40.54;97573.09;5032576;28;20563;-84
2023/06/21 08:12:34;;;;;;;17.10;6.57;;;;;;;36.97;41.45;97570.63;5051186;28;20459;-83
2023/06/21 08:15:00;;;;;;;10.27;6.70;;;;;;;38.43;39.02;97555.13;5051148;28;20028;-84
2023/06/21 08:17:25;;;;;;;9.63;6.60;;;;;;;39.25;37.55;97551.53;5034543;28;20067;-85
2023/06/21 08:19:51;;;;;;;11.98;6.40;;;;;;;38.11;38.54;97551.56;5034633;28;20028;-85
2023/06/21 08:22:16;;;;;;;10.48;6.95;;;;;;;37.71;39.02;97541.78;5045914;28;20075;-85
2023/06/21 08:24:42;;;;;;;17.33;6.65;;;;;;;37.67;39.32;97551.78;5040030;28;20028;-85
2023/06/21 08:27:08;;;;;;;10.68;7.22;;;;;;;37.38;40.02;97547.59;5051245;28;20447;-85
2023/06/21 08:29:33;;;;;;;12.07;7.05;;;;;;;38.05;38.49;97547.06;5025508;28;20103;-84
2023/06/21 08:31:58;;;;;;;11.02;6.88;;;;;;;38.94;36.54;97534.66;5025210;28;20040;-85
2023/06/21 08:34:24;;;;;;;12.57;6.65;;;;;;;40.12;34.64;97531.63;5034547;28;20153;-85
2023/06/21 08:36:49;;;;;;;11.65;7.63;;;;;;;40.60;34.29;97530.09;5027849;28;20037;-85
2023/06/21 08:39:15;;;;;;;8.10;7.30;;;;;;;40.88;32.90;97540.63;5041480;28;20032;-85
2023/06/21 08:41:41;;;;;;;8.52;6.65;;;;;;;41.50;32.18;97530.69;5026092;28;20036;-85
2023/06/21 08:44:06;;;;;;;12.98;7.32;;;;;;;41.23;32.77;97533.09;5022824;28;20032;-85
2023/06/21 08:46:34;;;;;;;9.98;7.50;;;;;;;41.37;32.88;97531.34;5035188;28;20036;-84
2023/06/21 08:49:03;;;;;;;9.52;7.50;;;;;;;41.13;33.11;97536.84;5031638;28;20075;-85
2023/06/21 08:51:30;;;;;;;21.67;8.30;;;;;;;41.48;31.93;97536.59;5030887;28;20401;-85
2023/06/21 08:54:06;;;;;;;7.55;6.85;;;;;;;41.45;31.53;97531.56;5029256;28;20036;-85
2023/06/21 08:56:37;;;;;;;8.85;7.25;;;;;;;41.60;30.27;97533.41;5030541;28;20036;-85
2023/06/21 08:59:06;;;;;;;10.43;7.90;;;;;;;41.96;31.52;97543.19;5034152;28;20051;-85
2023/06/21 09:01:40;;;;;;;12.60;6.88;;;;;;;42.13;28.55;97517.44;5033918;28;20060;-85
2023/06/21 09:04:07;;;;;;;10.07;7.50;;;;;;;41.01;29.31;97525.94;5022363;28;20484;-84
2023/06/21 09:06:33;;;;;;;10.18;7.57;;;;;;;40.83;30.40;97529.38;5051132;28;20048;-84
2023/06/21 09:08:59;;;;;;;10.90;8.18;;;;;;;41.84;29.33;97522.28;5027265;28;20522;-85
2023/06/21 09:11:24;;;;;;;13.75;8.98;;;;;;;41.41;29.31;97522.03;5030602;28;20028;-85
2023/06/21 09:13:51;;;;;;;11.00;7.93;;;;;;;42.19;29.21;97523.88;5013824;28;20032;-85
2023/06/21 09:16:17;;;;;;;14.00;12.20;;;;;;;41.85;29.67;97521.97;5032584;28;20040;-86
2023/06/21 09:18:46;;;;;;;14.48;10.13;;;;;;;41.56;29.39;97515.47;5031804;28;20455;-85
2023/06/21 09:21:12;;;;;;;10.93;7.88;;;;;;;41.40;29.83;97517.56;5046392;28;20028;-86
2023/06/21 09:23:39;;;;;;;10.40;7.85;;;;;;;40.50;30.17;97511.28;5060059;28;20458;-85
2023/06/21 09:26:05;;;;;;;8.77;7.50;;;;;;;39.91;30.54;97505.56;5050601;28;20036;-85
2023/06/21 09:28:31;;;;;;;11.30;8.05;;;;;;;40.95;30.53;97509.41;5033505;28;20040;-85
2023/06/21 09:30:57;;;;;;;8.93;8.00;;;;;;;40.75;29.71;97498.28;5023779;28;20034;-84
2023/06/21 09:33:26;;;;;;;12.13;8.07;;;;;;;41.53;29.43;97502.81;5013845;28;20447;-86
2023/06/21 09:35:51;;;;;;;8.75;7.25;;;;;;;41.74;28.68;97500.69;5038945;28;20492;-86
2023/06/21 09:38:37;;;;;;;12.30;7.53;;;;;;;42.41;29.06;97493.22;5033454;28;20091;-85
2023/06/21 09:41:05;;;;;;;8.05;7.25;;;;;;;39.23;30.76;97498.59;5031865;28;20382;-85
2023/06/21 09:43:30;;;;;;;10.50;8.05;;;;;;;40.13;30.76;97490.41;5016319;28;20033;-86
2023/06/21 09:46:08;;;;;;;10.05;7.22;;;;;;;40.58;31.45;97515.47;5043062;28;20039;-85
2023/06/21 09:48:38;;;;;;;12.20;7.47;;;;;;;41.06;31.13;97522.28;5033750;28;20098;-85
2023/06/21 09:51:05;;;;;;;10.00;7.43;;;;;;;40.94;30.97;97510.56;5033652;28;20115;-85
2023/06/21 09:53:32;;;;;;;13.57;7.60;;;;;;;42.29;29.40;97506.88;5028140;28;20036;-86
2023/06/21 09:56:00;;;;;;;10.00;8.20;;;;;;;42.83;28.81;97506.47;5035558;28;20029;-84
2023/06/21 09:58:25;;;;;;;8.98;6.82;;;;;;;42.83;28.34;97496.06;5029275;28;20029;-87
2023/06/21 10:00:51;;;;;;;33.40;15.10;;;;;;;42.86;28.74;97506.72;5015609;28;20108;-86
2023/06/21 10:03:21;;;;;;;19.48;7.78;;;;;;;43.49;27.62;97500.72;5016268;28;20029;-85
2023/06/21 10:05:54;;;;;;;7.97;7.18;;;;;;;44.14;26.68;97499.56;5025795;28;20455;-85
2023/06/21 10:08:24;;;;;;;11.73;7.45;;;;;;;43.76;27.31;97498.03;5070664;28;20036;-85
2023/06/21 10:10:49;;;;;;;8.70;7.68;;;;;;;42.17;28.72;97498.88;5037288;28;20025;-85
2023/06/21 10:13:15;;;;;;;12.15;8.95;;;;;;;42.66;29.49;97507.00;5040714;28;20032;-85
2023/06/21 10:15:45;;;;;;;11.85;7.00;;;;;;;42.99;29.06;97500.38;5023960;28;20040;-84
2023/06/21 10:18:12;;;;;;;10.43;7.30;;;;;;;43.71;28.61;97515.84;5016096;28;20476;-85
2023/06/21 10:20:40;;;;;;;9.75;7.10;;;;;;;42.77;28.47;97514.16;5032319;28;20029;-85
2023/06/21 10:23:08;;;;;;;7.95;7.15;;;;;;;44.22;26.95;97515.78;5032283;28;20025;-85
2023/06/21 10:25:33;;;;;;;11.43;6.97;;;;;;;45.20;25.96;97505.78;5018773;28;20055;-85
2023/06/21 10:28:00;;;;;;;14.27;7.40;;;;;;;44.14;26.72;97505.22;5045642;28;20488;-85
2023/06/21 10:30:27;;;;;;;7.97;7.18;;;;;;;43.27;28.29;97509.78;5035818;28;20147;-85
2023/06/21 10:32:54;;;;;;;8.98;7.20;;;;;;;41.86;28.96;97498.34;5052198;28;20033;-85
2023/06/21 10:35:21;;;;;;;8.27;7.45;;;;;;;41.16;30.07;97508.19;5039057;28;20028;-85
2023/06/21 10:38:25;;;;;;;8.35;6.97;;;;;;;42.11;29.40;97506.50;5047511;28;20032;-84
2023/06/21 10:40:51;;;;;;;7.85;7.05;;;;;;;41.41;29.34;97507.16;5050747;28;20063;-84
2023/06/21 10:43:17;;;;;;;32.08;8.20;;;;;;;40.49;31.38;97511.56;5033738;28;20028;-85
2023/06/21 10:45:44;;;;;;;9.50;7.07;;;;;;;40.78;31.21;97512.59;5039109;28;20024;-85
2023/06/21 10:48:11;;;;;;;7.50;6.78;;;;;;;41.04;30.70;97508.50;5033371;28;20060;-85
2023/06/21 10:50:38;;;;;;;12.48;6.90;;;;;;;42.38;29.73;97505.09;5038848;28;20045;-84
2023/06/21 10:53:04;;;;;;;12.40;7.15;;;;;;;43.69;27.88;97509.66;5038630;28;20064;-85
2023/06/21 10:55:30;;;;;;;11.10;8.48;;;;;;;44.30;27.32;97508.59;5038534;28;20048;-86
2023/06/21 10:57:55;;;;;;;9.65;6.93;;;;;;;42.98;28.74;97511.97;5045790;28;20062;-85
2023/06/21 11:00:22;;;;;;;8.63;7.38;;;;;;;41.50;29.95;97506.22;5021548;28;20095;-85
2023/06/21 11:02:48;;;;;;;8.32;6.80;;;;;;;42.10;30.06;97507.63;5027241;28;20418;-84
2023/06/21 11:05:19;;;;;;;11.70;6.75;;;;;;;43.25;28.79;97502.81;5035323;28;20046;-85
2023/06/21 11:07:46;;;;;;;;;;;;;;;44.36;27.70;97513.00;5026813;28;20114;-85
2023/06/21 11:10:12;;;;;;;6.63;5.88;;;;;;;45.59;25.45;97507.13;5035556;28;19936;-85
2023/06/21 11:12:38;;;;;;;8.85;6.75;;;;;;;44.35;26.21;97502.00;5046684;28;20604;-85
2023/06/21 11:15:07;;;;;;;9.40;6.60;;;;;;;45.16;25.98;97501.91;5045649;28;20028;-85
2023/06/21 11:17:36;;;;;;;7.43;6.63;;;;;;;45.47;25.39;97495.56;5055049;28;20484;-85
2023/06/21 11:20:22;;;;;;;6.97;6.28;;;;;;;43.05;27.47;97490.69;5038202;28;20066;-84